createdAt,value
2024-02-02T00:00:40.323Z,52.40
2024-02-02T00:03:08.995Z,52.30
2024-02-02T00:05:38.859Z,52.47
2024-02-02T00:08:07.741Z,52.43
2024-02-02T00:10:36.404Z,52.80
2024-02-02T00:13:04.848Z,51.53
2024-02-02T00:15:33.325Z,52.23
2024-02-02T00:18:01.821Z,52.20
2024-02-02T00:20:30.338Z,52.10
2024-02-02T00:23:00.203Z,52.33
2024-02-02T00:25:28.771Z,51.87
2024-02-02T00:27:57.191Z,51.03
2024-02-02T00:30:25.663Z,51.37
2024-02-02T00:32:54.240Z,50.57
2024-02-02T00:35:22.757Z,52.63
2024-02-02T00:37:51.195Z,51.33
2024-02-02T00:40:21.503Z,52.23
2024-02-02T00:42:49.941Z,53.07
2024-02-02T00:45:18.555Z,52.20
2024-02-02T00:47:47.127Z,53.00
2024-02-02T00:50:15.673Z,54.67
2024-02-02T00:52:44.134Z,53.17
2024-02-02T00:55:12.750Z,52.23
2024-02-02T00:57:42.649Z,52.23
2024-02-02T01:00:12.401Z,52.40
2024-02-02T01:02:41.842Z,52.43
2024-02-02T01:05:10.734Z,53.47
2024-02-02T01:07:39.298Z,54.70
2024-02-02T01:10:07.951Z,53.50
2024-02-02T01:12:36.700Z,55.37
2024-02-02T01:15:08.470Z,53.67
2024-02-02T01:17:36.930Z,54.00
2024-02-02T01:20:05.578Z,54.53
2024-02-02T01:22:34.062Z,57.17
2024-02-02T01:25:02.727Z,57.97
2024-02-02T01:27:31.214Z,58.13
2024-02-02T01:29:59.770Z,59.13
2024-02-02T01:32:29.582Z,58.93
2024-02-02T01:34:58.033Z,58.33
2024-02-02T01:37:26.521Z,59.47
2024-02-02T01:39:54.954Z,58.50
2024-02-02T01:42:23.581Z,60.87
2024-02-02T01:44:52.675Z,61.60
2024-02-02T01:47:21.160Z,62.40
2024-02-02T01:49:51.058Z,62.43
2024-02-02T01:52:19.655Z,62.93
2024-02-02T01:54:48.206Z,64.20
2024-02-02T01:57:16.779Z,65.57
2024-02-02T01:59:45.300Z,69.57
2024-02-02T02:02:13.707Z,69.67
2024-02-02T02:04:42.486Z,70.90
2024-02-02T02:07:12.688Z,71.07
2024-02-02T02:09:42.256Z,75.53
2024-02-02T02:12:10.715Z,76.97
2024-02-02T02:14:39.346Z,78.60
2024-02-02T02:17:07.920Z,76.03
2024-02-02T02:19:37.393Z,77.20
2024-02-02T02:22:07.898Z,79.00
2024-02-02T02:24:36.506Z,80.20
2024-02-02T02:27:05.163Z,78.43
2024-02-02T02:29:33.649Z,81.03
2024-02-02T02:32:02.134Z,78.00
2024-02-02T02:34:32.657Z,78.83
2024-02-02T02:37:01.252Z,80.53
2024-02-02T02:39:31.815Z,80.20
2024-02-02T02:42:00.340Z,80.50
2024-02-02T02:44:29.023Z,79.40
2024-02-02T02:46:57.438Z,78.67
2024-02-02T02:49:26.015Z,78.47
2024-02-02T02:51:54.579Z,80.60
2024-02-02T02:54:23.073Z,80.30
2024-02-02T02:56:52.951Z,78.90
2024-02-02T02:59:21.447Z,76.00
2024-02-02T03:01:49.910Z,79.33
2024-02-02T03:04:18.544Z,78.33
2024-02-02T03:06:47.161Z,77.80
2024-02-02T03:09:15.689Z,75.97
2024-02-02T03:11:44.113Z,76.43
2024-02-02T03:14:14.047Z,76.67
2024-02-02T03:16:42.515Z,76.00
2024-02-02T03:19:11.032Z,77.00
2024-02-02T03:21:39.553Z,75.50
2024-02-02T03:24:11.929Z,77.23
2024-02-02T03:26:40.718Z,76.53
2024-02-02T03:29:09.144Z,73.77
2024-02-02T03:31:39.005Z,77.23
2024-02-02T03:34:07.503Z,77.93
2024-02-02T03:36:36.043Z,81.70
2024-02-02T03:39:04.580Z,80.90
2024-02-02T03:41:33.140Z,80.77
2024-02-02T03:44:01.564Z,80.50
2024-02-02T03:46:29.987Z,83.60
2024-02-02T03:49:00.718Z,81.80
2024-02-02T03:51:29.245Z,80.53
2024-02-02T03:53:57.731Z,80.03
2024-02-02T03:56:26.520Z,80.30
2024-02-02T03:58:54.929Z,81.53
2024-02-02T04:01:23.398Z,79.57
2024-02-02T04:03:51.949Z,78.50
2024-02-02T04:06:22.567Z,80.33
2024-02-02T04:08:51.060Z,80.87
2024-02-02T04:11:19.683Z,81.63
2024-02-02T04:13:48.084Z,81.17
2024-02-02T04:16:15.519Z,80.17
2024-02-02T04:18:44.190Z,83.07
2024-02-02T04:21:12.750Z,78.50
2024-02-02T04:23:42.586Z,82.17
2024-02-02T04:26:11.103Z,81.07
2024-02-02T04:28:39.599Z,78.53
2024-02-02T04:31:08.114Z,80.73
2024-02-02T04:33:36.740Z,79.63
2024-02-02T04:36:05.772Z,78.67
2024-02-02T04:38:34.299Z,79.10
2024-02-02T04:41:04.129Z,77.53
2024-02-02T04:43:32.623Z,76.37
2024-02-02T04:46:01.077Z,76.17
2024-02-02T04:48:29.672Z,77.87
2024-02-02T04:50:58.715Z,74.17
2024-02-02T04:53:27.135Z,74.87
2024-02-02T04:55:56.241Z,74.57
2024-02-02T04:58:26.237Z,73.17
2024-02-02T05:00:54.689Z,73.57
2024-02-02T05:03:23.175Z,69.17
2024-02-02T05:05:51.685Z,73.27
2024-02-02T05:08:20.237Z,71.17
2024-02-02T05:10:48.668Z,69.10
2024-02-02T05:13:17.082Z,68.23
2024-02-02T05:15:47.226Z,70.57
2024-02-02T05:18:16.155Z,66.93
2024-02-02T05:20:44.677Z,67.07
2024-02-02T05:23:13.098Z,66.93
2024-02-02T05:25:41.850Z,68.23
2024-02-02T05:28:10.411Z,66.97
2024-02-02T05:30:39.035Z,66.00
2024-02-02T05:33:09.104Z,65.70
2024-02-02T05:35:37.573Z,67.67
2024-02-02T05:38:06.163Z,67.13
2024-02-02T05:40:34.622Z,68.27
2024-02-02T05:43:03.121Z,66.30
2024-02-02T05:45:31.631Z,65.80
2024-02-02T05:48:00.279Z,66.43
2024-02-02T05:50:32.511Z,67.40
2024-02-02T05:53:01.000Z,70.97
2024-02-02T05:55:29.512Z,68.90
2024-02-02T05:57:58.402Z,68.10
2024-02-02T06:00:26.876Z,70.90
2024-02-02T06:02:55.356Z,71.73
2024-02-02T06:05:23.820Z,78.27
2024-02-02T06:07:53.698Z,79.70
2024-02-02T06:10:22.128Z,79.17
2024-02-02T06:12:52.088Z,79.50
2024-02-02T06:15:20.617Z,80.43
2024-02-02T06:17:50.778Z,78.73
2024-02-02T06:20:21.026Z,80.93
2024-02-02T06:22:49.479Z,81.40
2024-02-02T06:25:19.875Z,78.47
2024-02-02T06:27:48.328Z,76.90
2024-02-02T06:30:17.357Z,77.50
2024-02-02T06:32:50.097Z,77.03
2024-02-02T06:35:18.608Z,74.33
2024-02-02T06:37:47.029Z,74.47
2024-02-02T06:40:15.517Z,76.50
2024-02-02T06:42:45.322Z,77.40
2024-02-02T06:45:13.794Z,74.67
2024-02-02T06:47:43.810Z,73.10
2024-02-02T06:50:12.618Z,72.53
2024-02-02T06:52:41.036Z,71.57
2024-02-02T06:55:09.848Z,71.63
2024-02-02T06:57:38.366Z,69.20
2024-02-02T07:00:12.091Z,69.87
2024-02-02T07:02:40.599Z,72.43
2024-02-02T07:05:09.294Z,74.73
2024-02-02T07:07:37.712Z,73.73
2024-02-02T07:10:08.460Z,71.90
2024-02-02T07:12:58.037Z,75.53
2024-02-02T07:15:29.811Z,76.37
2024-02-02T07:17:59.427Z,79.30
2024-02-02T07:20:48.871Z,80.53
2024-02-02T07:23:22.687Z,79.00
2024-02-02T07:25:52.962Z,80.10
2024-02-02T07:28:29.303Z,76.47
2024-02-02T07:31:00.412Z,78.67
2024-02-02T07:33:30.104Z,80.00
2024-02-02T07:36:00.274Z,79.80
2024-02-02T07:38:43.885Z,78.57
2024-02-02T07:41:13.344Z,77.80
2024-02-02T07:43:42.014Z,78.73
2024-02-02T07:46:14.391Z,76.20
2024-02-02T07:48:44.908Z,75.73
2024-02-02T07:51:13.609Z,79.17
2024-02-02T07:53:42.228Z,81.00
2024-02-02T07:56:10.730Z,80.63
2024-02-02T07:58:41.063Z,80.17
2024-02-02T08:01:09.566Z,76.40
2024-02-02T08:03:39.873Z,74.77
2024-02-02T08:06:08.767Z,74.17
2024-02-02T08:08:38.061Z,61.93
2024-02-02T08:11:06.709Z,49.20
2024-02-02T08:13:35.915Z,39.63
2024-02-02T08:16:04.458Z,51.67
2024-02-02T08:18:33.882Z,59.63
2024-02-02T08:21:04.660Z,66.93
2024-02-02T08:23:34.143Z,67.17
2024-02-02T08:26:03.250Z,68.73
2024-02-02T08:28:39.557Z,67.57
2024-02-02T08:31:13.944Z,69.77
2024-02-02T08:33:44.489Z,70.97
2024-02-02T08:36:14.866Z,69.13
2024-02-02T08:38:43.335Z,69.77
2024-02-02T08:41:11.931Z,69.53
2024-02-02T08:43:41.130Z,66.70
2024-02-02T08:46:10.634Z,68.67
2024-02-02T08:48:45.733Z,65.67
2024-02-02T08:51:34.522Z,66.00
2024-02-02T08:54:24.578Z,63.63
2024-02-02T08:56:57.054Z,62.40
2024-02-02T08:59:32.037Z,61.33
2024-02-02T09:02:00.452Z,61.10
2024-02-02T09:04:46.705Z,58.63
2024-02-02T09:07:16.914Z,54.90
2024-02-02T09:09:45.471Z,50.65
2024-02-02T09:12:13.986Z,45.27
2024-02-02T09:14:42.800Z,43.90
2024-02-02T09:17:10.250Z,45.93
2024-02-02T09:19:42.767Z,45.93
2024-02-02T09:22:13.836Z,46.63
2024-02-02T09:24:45.276Z,47.13
2024-02-02T09:27:18.091Z,51.00
2024-02-02T09:29:47.337Z,55.10
2024-02-02T09:32:16.718Z,56.93
2024-02-02T09:34:45.372Z,58.60
2024-02-02T09:37:17.736Z,56.53
2024-02-02T09:39:53.349Z,58.63
2024-02-02T09:42:30.676Z,57.67
2024-02-02T09:45:00.901Z,55.63
2024-02-02T09:47:39.495Z,54.03
2024-02-02T09:50:11.862Z,51.87
2024-02-02T09:52:43.606Z,49.83
2024-02-02T09:55:16.278Z,49.70
2024-02-02T09:57:49.017Z,48.50
2024-02-02T10:00:19.258Z,48.57
2024-02-02T10:02:54.627Z,50.53
2024-02-02T10:05:29.066Z,49.80
2024-02-02T10:08:07.319Z,50.80
2024-02-02T10:10:42.721Z,50.87
2024-02-02T10:13:15.288Z,52.43
2024-02-02T10:15:49.114Z,51.97
2024-02-02T10:18:27.149Z,52.30
2024-02-02T10:20:58.209Z,52.53
2024-02-02T10:23:45.293Z,54.93
2024-02-02T10:26:29.712Z,55.93
2024-02-02T10:29:02.790Z,57.80
2024-02-02T10:31:36.700Z,55.20
2024-02-02T10:34:14.019Z,55.70
2024-02-02T10:36:47.529Z,52.53
2024-02-02T10:39:19.132Z,52.70
2024-02-02T10:41:55.421Z,53.13
2024-02-02T10:44:26.851Z,52.87
2024-02-02T10:46:59.984Z,50.93
2024-02-02T10:49:36.299Z,50.33
2024-02-02T10:52:11.569Z,48.97
2024-02-02T10:54:53.506Z,57.42
2024-02-02T10:57:27.922Z,54.43
2024-02-02T11:00:10.999Z,55.97
2024-02-02T11:02:45.511Z,56.43
2024-02-02T11:05:18.232Z,54.23
2024-02-02T11:07:50.273Z,52.10
2024-02-02T11:10:20.524Z,51.03
2024-02-02T11:12:55.017Z,50.17
2024-02-02T11:15:30.057Z,49.10
2024-02-02T11:18:05.102Z,51.40
2024-02-02T11:20:38.814Z,52.40
2024-02-02T11:23:12.959Z,51.87
2024-02-02T11:25:44.697Z,53.07
2024-02-02T11:28:17.866Z,55.10
2024-02-02T11:30:53.665Z,57.17
2024-02-02T11:33:30.141Z,56.67
2024-02-02T11:36:05.298Z,58.13
2024-02-02T11:38:40.750Z,59.17
2024-02-02T11:41:11.512Z,57.43
2024-02-02T11:43:41.935Z,56.07
2024-02-02T11:46:11.505Z,55.87
2024-02-02T11:48:42.072Z,59.50
2024-02-02T11:51:12.521Z,58.43
2024-02-02T11:53:43.851Z,58.50
2024-02-02T11:56:13.759Z,58.60
2024-02-02T11:58:46.251Z,62.60
2024-02-02T12:01:29.787Z,64.73
2024-02-02T12:04:06.330Z,62.73
2024-02-02T12:06:38.028Z,65.57
2024-02-02T12:09:15.983Z,64.53
2024-02-02T12:11:47.249Z,64.43
2024-02-02T12:14:22.590Z,62.93
2024-02-02T12:16:51.867Z,66.37
2024-02-02T12:19:20.968Z,67.40
2024-02-02T12:21:49.694Z,65.67
2024-02-02T12:24:18.572Z,63.60
2024-02-02T12:26:49.662Z,62.37
2024-02-02T12:29:19.685Z,60.63
2024-02-02T12:31:48.773Z,58.83
2024-02-02T12:34:18.176Z,56.90
2024-02-02T12:36:46.794Z,57.07
2024-02-02T12:39:15.375Z,58.27
2024-02-02T12:41:43.846Z,57.80
2024-02-02T12:44:12.369Z,55.63
2024-02-02T12:46:48.883Z,55.23
2024-02-02T12:49:17.573Z,54.93
2024-02-02T12:51:46.603Z,54.53
2024-02-02T12:54:15.151Z,54.77
2024-02-02T12:56:43.710Z,55.70
2024-02-02T12:59:13.494Z,57.27
2024-02-02T13:01:43.853Z,56.77
2024-02-02T13:04:14.555Z,55.20
2024-02-02T13:06:43.976Z,52.97
2024-02-02T13:09:20.494Z,51.13
2024-02-02T13:11:49.608Z,52.73
2024-02-02T13:14:28.844Z,54.60
2024-02-02T13:17:16.013Z,55.47
2024-02-02T13:19:47.214Z,52.77
2024-02-02T13:22:22.855Z,52.07
2024-02-02T13:24:54.292Z,53.47
2024-02-02T13:27:25.765Z,56.40
2024-02-02T13:29:58.395Z,57.30
2024-02-02T13:32:28.255Z,56.47
2024-02-02T13:35:01.566Z,55.30
2024-02-02T13:37:38.043Z,53.37
2024-02-02T13:40:10.967Z,58.80
2024-02-02T13:42:40.807Z,59.50
2024-02-02T13:45:11.738Z,57.37
2024-02-02T13:47:40.981Z,59.57
2024-02-02T13:50:17.330Z,63.33
2024-02-02T13:52:51.201Z,61.73
2024-02-02T13:55:20.497Z,61.90
2024-02-02T13:57:49.954Z,65.17
2024-02-02T14:00:20.443Z,65.77
2024-02-02T14:02:49.159Z,68.27
2024-02-02T14:05:19.029Z,72.03
2024-02-02T14:07:56.100Z,77.60
2024-02-02T14:10:24.564Z,78.50
2024-02-02T14:12:53.066Z,82.50
2024-02-02T14:15:21.869Z,84.73
2024-02-02T14:17:50.354Z,92.37
2024-02-02T14:20:27.444Z,95.83
2024-02-02T14:22:55.909Z,94.70
2024-02-02T14:25:27.936Z,87.73
2024-02-02T14:27:56.570Z,86.57
2024-02-02T14:30:25.024Z,82.37
2024-02-02T14:33:04.958Z,78.37
2024-02-02T14:35:43.763Z,71.43
2024-02-02T14:38:12.213Z,71.77
2024-02-02T14:40:40.625Z,67.13
2024-02-02T14:43:09.209Z,63.67
2024-02-02T14:45:37.954Z,62.53
2024-02-02T14:48:07.388Z,63.13
2024-02-02T14:50:36.688Z,59.93
2024-02-02T14:53:06.920Z,57.73
2024-02-02T14:55:35.336Z,50.70
2024-02-02T14:58:05.483Z,49.27
2024-02-02T15:00:34.655Z,48.30
2024-02-02T15:03:05.036Z,54.13
2024-02-02T15:05:33.612Z,49.73
2024-02-02T15:08:02.181Z,47.60
2024-02-02T15:10:32.061Z,46.40
2024-02-02T15:13:00.546Z,47.67
2024-02-02T15:15:29.180Z,51.73
2024-02-02T15:17:57.639Z,52.80
2024-02-02T15:20:26.073Z,55.53
2024-02-02T15:22:54.521Z,58.93
2024-02-02T15:25:22.967Z,62.70
2024-02-02T15:27:52.932Z,64.83
2024-02-02T15:30:22.212Z,65.33
2024-02-02T15:32:50.706Z,70.67
2024-02-02T15:35:19.191Z,74.73
2024-02-02T15:37:47.736Z,78.60
2024-02-02T15:40:18.129Z,79.10
2024-02-02T15:42:50.663Z,73.67
2024-02-02T15:45:20.528Z,74.13
2024-02-02T15:47:51.865Z,77.77
2024-02-02T15:50:20.904Z,78.23
2024-02-02T15:52:49.340Z,75.77
2024-02-02T15:55:18.194Z,80.47
2024-02-02T15:57:51.857Z,81.20
2024-02-02T16:00:23.718Z,79.17
2024-02-02T16:02:52.947Z,78.10
2024-02-02T16:05:22.481Z,77.13
2024-02-02T16:07:51.242Z,75.93
2024-02-02T16:10:19.736Z,73.13
2024-02-02T16:12:48.184Z,73.60
2024-02-02T16:15:16.735Z,68.33
2024-02-02T16:17:46.717Z,64.63
2024-02-02T16:20:15.229Z,66.00
2024-02-02T16:22:44.225Z,61.30
2024-02-02T16:25:13.340Z,58.60
2024-02-02T16:27:42.059Z,58.03
2024-02-02T16:30:12.124Z,57.97
2024-02-02T16:32:40.716Z,58.13
2024-02-02T16:35:10.959Z,57.60
2024-02-02T16:37:40.688Z,58.10
2024-02-02T16:40:09.964Z,56.77
2024-02-02T16:42:41.234Z,57.07
2024-02-02T16:45:10.446Z,53.90
2024-02-02T16:47:39.561Z,55.50
2024-02-02T16:50:08.524Z,56.13
2024-02-02T16:52:38.445Z,55.97
2024-02-02T16:55:07.197Z,59.97
2024-02-02T16:57:35.735Z,61.93
2024-02-02T17:00:06.156Z,66.17
2024-02-02T17:02:34.722Z,64.80
2024-02-02T17:05:03.155Z,70.03
2024-02-02T17:07:31.818Z,80.03
2024-02-02T17:10:01.758Z,87.00
2024-02-02T17:12:30.240Z,88.00
2024-02-02T17:14:58.893Z,90.67
2024-02-02T17:17:27.404Z,93.53
2024-02-02T17:19:55.959Z,98.97
2024-02-02T17:22:24.522Z,101.27
2024-02-02T17:24:53.043Z,99.60
2024-02-02T17:27:23.219Z,103.10
2024-02-02T17:29:51.670Z,96.93
2024-02-02T17:32:22.220Z,95.13
2024-02-02T17:34:50.832Z,95.43
2024-02-02T17:37:19.382Z,95.37
2024-02-02T17:39:48.749Z,97.37
2024-02-02T17:42:17.443Z,100.70
2024-02-02T17:44:47.257Z,97.73
2024-02-02T17:47:15.700Z,100.40
2024-02-02T17:49:45.907Z,99.20
2024-02-02T17:52:17.969Z,99.57
2024-02-02T17:54:46.494Z,96.93
2024-02-02T17:57:15.012Z,96.00
2024-02-02T17:59:43.577Z,93.73
2024-02-02T18:02:13.422Z,92.27
2024-02-02T18:04:42.035Z,91.67
2024-02-02T18:07:12.812Z,88.57
2024-02-02T18:09:41.818Z,89.23
2024-02-02T18:12:13.014Z,85.23
2024-02-02T18:14:41.750Z,87.97
2024-02-02T18:17:15.372Z,84.40
2024-02-02T18:19:45.216Z,86.00
2024-02-02T18:22:13.684Z,84.47
2024-02-02T18:24:42.253Z,82.63
2024-02-02T18:27:11.041Z,79.97
2024-02-02T18:29:39.496Z,79.67
2024-02-02T18:32:08.995Z,80.00
2024-02-02T18:34:39.107Z,78.23
2024-02-02T18:37:09.053Z,79.57
2024-02-02T18:39:38.022Z,77.73
2024-02-02T18:42:08.271Z,77.53
2024-02-02T18:44:36.796Z,74.10
2024-02-02T18:47:05.396Z,74.00
2024-02-02T18:49:33.990Z,72.43
2024-02-02T18:52:02.502Z,71.30
2024-02-02T18:54:32.404Z,71.87
2024-02-02T18:57:00.885Z,70.23
2024-02-02T18:59:29.360Z,70.57
2024-02-02T19:01:57.960Z,71.37
2024-02-02T19:04:26.601Z,67.63
2024-02-02T19:06:55.164Z,70.83
2024-02-02T19:09:24.088Z,69.83
2024-02-02T19:11:53.977Z,72.43
2024-02-02T19:14:22.962Z,71.13
2024-02-02T19:16:51.515Z,70.23
2024-02-02T19:19:21.931Z,71.33
2024-02-02T19:21:50.595Z,71.73
2024-02-02T19:24:19.172Z,69.60
2024-02-02T19:26:48.718Z,72.37
2024-02-02T19:29:18.512Z,71.20
2024-02-02T19:31:46.988Z,69.77
2024-02-02T19:34:15.553Z,68.30
2024-02-02T19:36:44.297Z,68.20
2024-02-02T19:39:13.447Z,70.07
2024-02-02T19:41:41.963Z,71.27
2024-02-02T19:44:10.379Z,67.87
2024-02-02T19:46:40.252Z,68.10
2024-02-02T19:49:11.452Z,69.30
2024-02-02T19:51:40.692Z,69.23
2024-02-02T19:54:09.173Z,69.20
2024-02-02T19:56:37.635Z,67.70
2024-02-02T19:59:06.099Z,67.20
2024-02-02T20:01:35.348Z,66.77
2024-02-02T20:04:05.553Z,67.53
2024-02-02T20:06:34.304Z,67.83
2024-02-02T20:09:02.829Z,66.60
2024-02-02T20:11:31.667Z,65.60
2024-02-02T20:14:00.256Z,65.27
2024-02-02T20:16:28.679Z,68.23
2024-02-02T20:18:57.183Z,66.60
2024-02-02T20:21:29.286Z,68.30
2024-02-02T20:23:58.004Z,71.53
2024-02-02T20:26:26.784Z,68.70
2024-02-02T20:28:56.974Z,68.77
2024-02-02T20:31:25.506Z,70.00
2024-02-02T20:33:54.429Z,68.13
2024-02-02T20:36:27.847Z,66.47
2024-02-02T20:38:57.681Z,70.23
2024-02-02T20:41:27.099Z,67.43
2024-02-02T20:43:56.831Z,69.07
2024-02-02T20:46:25.511Z,65.90
2024-02-02T20:48:54.135Z,68.87
2024-02-02T20:51:23.131Z,67.20
2024-02-02T20:53:51.684Z,68.97
2024-02-02T20:56:21.496Z,67.53
2024-02-02T20:58:49.962Z,71.87
2024-02-02T21:01:18.557Z,69.67
2024-02-02T21:03:47.273Z,69.30
2024-02-02T21:06:16.170Z,69.03
2024-02-02T21:08:45.425Z,71.60
2024-02-02T21:11:13.883Z,69.53
2024-02-02T21:13:45.297Z,68.83
2024-02-02T21:16:16.076Z,71.83
2024-02-02T21:18:44.655Z,73.20
2024-02-02T21:21:21.864Z,74.90
2024-02-02T21:23:51.098Z,72.07
2024-02-02T21:26:19.624Z,71.83
2024-02-02T21:28:50.492Z,70.73
2024-02-02T21:31:18.910Z,73.13
2024-02-02T21:33:47.486Z,69.50
2024-02-02T21:36:16.061Z,68.40
2024-02-02T21:38:44.546Z,69.67
2024-02-02T21:41:13.030Z,70.43
2024-02-02T21:43:41.474Z,69.33
2024-02-02T21:46:11.266Z,70.23
2024-02-02T21:48:39.879Z,71.00
2024-02-02T21:51:09.430Z,69.10
2024-02-02T21:53:37.895Z,68.93
2024-02-02T21:56:07.501Z,67.13
2024-02-02T21:58:35.939Z,67.17
2024-02-02T22:01:04.540Z,69.37
2024-02-02T22:03:34.522Z,67.77
2024-02-02T22:06:03.090Z,67.77
2024-02-02T22:08:31.643Z,61.83
2024-02-02T22:11:00.073Z,64.03
2024-02-02T22:13:28.560Z,62.33
2024-02-02T22:15:57.014Z,63.30
2024-02-02T22:18:25.669Z,61.27
2024-02-02T22:20:55.574Z,63.03
2024-02-02T22:23:24.004Z,60.77
2024-02-02T22:25:52.446Z,64.03
2024-02-02T22:28:21.076Z,63.30
2024-02-02T22:30:49.614Z,64.00
2024-02-02T22:33:18.214Z,65.93
2024-02-02T22:35:46.753Z,64.13
2024-02-02T22:38:17.085Z,66.73
2024-02-02T22:40:45.578Z,64.50
2024-02-02T22:43:13.995Z,65.57
2024-02-02T22:45:42.630Z,67.33
2024-02-02T22:48:11.274Z,68.13
2024-02-02T22:50:39.757Z,66.90
2024-02-02T22:53:08.197Z,68.37
2024-02-02T22:55:38.459Z,65.70
2024-02-02T22:58:07.152Z,69.17
2024-02-02T23:00:35.997Z,70.47
2024-02-02T23:03:05.586Z,70.57
2024-02-02T23:05:34.037Z,71.13
2024-02-02T23:08:02.456Z,70.97
2024-02-02T23:10:30.906Z,71.27
2024-02-02T23:13:00.738Z,72.57
2024-02-02T23:15:29.304Z,73.60
2024-02-02T23:17:57.868Z,74.40
2024-02-02T23:20:26.304Z,75.37
2024-02-02T23:22:54.705Z,77.37
2024-02-02T23:25:23.235Z,74.90
2024-02-02T23:27:53.676Z,79.87
2024-02-02T23:30:23.638Z,77.50
2024-02-02T23:32:52.192Z,78.07
2024-02-02T23:35:20.628Z,78.80
2024-02-02T23:37:49.144Z,80.13
2024-02-02T23:40:17.608Z,79.03
2024-02-02T23:42:46.141Z,78.53
2024-02-02T23:45:14.689Z,79.30
2024-02-02T23:47:44.504Z,79.00
2024-02-02T23:50:13.659Z,78.67
2024-02-02T23:52:42.237Z,79.63
2024-02-02T23:55:10.849Z,79.57
2024-02-02T23:57:39.611Z,77.77
